createdAt,value
2022-10-17T00:01:01.334Z,12.98
2022-10-17T00:03:29.606Z,12.95
2022-10-17T00:05:58.420Z,12.23
2022-10-17T00:08:27.106Z,11.18
2022-10-17T00:11:00.024Z,11.85
2022-10-17T00:13:28.487Z,12.63
2022-10-17T00:15:58.368Z,11.25
2022-10-17T00:18:26.633Z,11.55
2022-10-17T00:20:55.058Z,12.48
2022-10-17T00:23:23.425Z,13.20
2022-10-17T00:25:59.823Z,12.70
2022-10-17T00:28:28.346Z,11.68
2022-10-17T00:30:59.650Z,12.55
2022-10-17T00:33:28.381Z,13.38
2022-10-17T00:36:05.077Z,13.52
2022-10-17T00:38:33.269Z,12.25
2022-10-17T00:41:01.711Z,11.93
2022-10-17T00:43:30.723Z,10.60
2022-10-17T00:46:00.231Z,12.52
2022-10-17T00:48:29.209Z,12.07
2022-10-17T00:50:57.400Z,12.90
2022-10-17T00:53:27.276Z,12.90
2022-10-17T00:56:00.845Z,12.88
2022-10-17T00:58:29.122Z,12.20
2022-10-17T01:00:57.303Z,12.98
2022-10-17T01:03:31.180Z,13.43
2022-10-17T01:06:00.662Z,12.93
2022-10-17T01:08:28.967Z,13.10
2022-10-17T01:11:06.433Z,13.27
2022-10-17T01:13:40.734Z,12.25
2022-10-17T01:16:14.753Z,11.95
2022-10-17T01:18:57.030Z,12.30
2022-10-17T01:21:35.762Z,10.27
2022-10-17T01:24:30.665Z,11.93
2022-10-17T01:27:27.103Z,13.00
2022-10-17T01:30:15.394Z,12.35
2022-10-17T01:32:50.836Z,13.45
2022-10-17T01:35:24.030Z,12.43
2022-10-17T01:37:57.886Z,11.88
2022-10-17T01:40:29.262Z,11.75
2022-10-17T01:43:07.511Z,13.40
2022-10-17T01:45:44.159Z,13.05
2022-10-17T01:48:18.370Z,12.20
2022-10-17T01:50:53.084Z,13.20
2022-10-17T01:53:28.011Z,13.65
2022-10-17T01:56:00.577Z,11.90
2022-10-17T01:58:33.262Z,14.00
2022-10-17T02:01:06.010Z,12.40
2022-10-17T02:03:36.754Z,14.25
2022-10-17T02:06:07.738Z,11.98
2022-10-17T02:08:43.965Z,11.77
2022-10-17T02:11:16.722Z,12.10
2022-10-17T02:14:00.394Z,11.82
2022-10-17T02:16:36.854Z,10.68
2022-10-17T02:19:45.821Z,11.48
2022-10-17T02:22:26.157Z,10.85
2022-10-17T02:25:01.873Z,11.43
2022-10-17T02:27:40.005Z,10.18
2022-10-17T02:30:12.787Z,8.95
2022-10-17T02:32:49.374Z,10.45
2022-10-17T02:35:26.494Z,9.90
2022-10-17T02:37:56.399Z,10.68
2022-10-17T02:40:26.111Z,9.30
2022-10-17T02:42:55.778Z,9.30
2022-10-17T02:45:26.645Z,9.90
2022-10-17T02:48:00.317Z,10.45
2022-10-17T02:50:39.868Z,10.65
2022-10-17T02:53:13.592Z,10.25
2022-10-17T02:55:49.532Z,10.95
2022-10-17T02:58:22.565Z,8.65
2022-10-17T03:00:52.468Z,8.68
2022-10-17T03:03:22.390Z,9.10
2022-10-17T03:05:52.522Z,9.32
2022-10-17T03:08:24.213Z,8.60
2022-10-17T03:10:52.858Z,8.05
2022-10-17T03:13:21.926Z,9.15
2022-10-17T03:15:51.199Z,8.30
2022-10-17T03:18:19.346Z,9.07
2022-10-17T03:20:49.478Z,7.55
2022-10-17T03:23:19.481Z,8.40
2022-10-17T03:25:48.607Z,7.82
2022-10-17T03:28:17.551Z,7.80
2022-10-17T03:30:45.730Z,7.80
2022-10-17T03:33:13.894Z,8.15
2022-10-17T03:35:42.038Z,7.55
2022-10-17T03:38:12.026Z,7.20
2022-10-17T03:40:41.660Z,7.65
2022-10-17T03:43:11.946Z,6.72
2022-10-17T03:45:41.867Z,7.65
2022-10-17T03:48:10.061Z,6.90
2022-10-17T03:50:38.197Z,7.20
2022-10-17T03:53:06.600Z,7.50
2022-10-17T03:55:34.777Z,7.20
2022-10-17T03:58:04.655Z,7.45
2022-10-17T04:00:32.908Z,7.75
2022-10-17T04:03:00.998Z,8.38
2022-10-17T04:05:29.266Z,9.02
2022-10-17T04:08:00.991Z,9.80
2022-10-17T04:10:52.047Z,8.70
2022-10-17T04:13:21.615Z,8.40
2022-10-17T04:15:55.959Z,7.97
2022-10-17T04:18:24.386Z,8.15
2022-10-17T04:20:53.306Z,8.57
2022-10-17T04:23:22.186Z,7.90
2022-10-17T04:25:57.949Z,8.05
2022-10-17T04:28:29.147Z,8.07
2022-10-17T04:30:58.392Z,8.30
2022-10-17T04:33:28.988Z,8.40
2022-10-17T04:35:58.799Z,9.57
2022-10-17T04:38:29.578Z,9.45
2022-10-17T04:40:58.605Z,10.73
2022-10-17T04:43:28.171Z,10.05
2022-10-17T04:45:58.025Z,10.60
2022-10-17T04:48:26.229Z,10.93
2022-10-17T04:50:55.474Z,10.70
2022-10-17T04:53:39.999Z,11.07
2022-10-17T04:56:13.347Z,10.75
2022-10-17T04:58:43.937Z,9.82
2022-10-17T05:01:14.274Z,11.25
2022-10-17T05:03:44.117Z,11.57
2022-10-17T05:06:14.301Z,10.95
2022-10-17T05:08:45.635Z,10.55
2022-10-17T05:11:19.222Z,11.68
2022-10-17T05:13:53.097Z,10.75
2022-10-17T05:16:21.396Z,10.10
2022-10-17T05:18:52.939Z,11.63
2022-10-17T05:21:22.718Z,9.80
2022-10-17T05:23:51.132Z,10.20
2022-10-17T05:26:19.672Z,11.52
2022-10-17T05:28:48.019Z,11.10
2022-10-17T05:31:18.193Z,11.95
2022-10-17T05:33:46.494Z,11.23
2022-10-17T05:36:15.780Z,12.20
2022-10-17T05:38:44.906Z,12.23
2022-10-17T05:41:13.171Z,12.90
2022-10-17T05:43:41.316Z,12.07
2022-10-17T05:46:09.724Z,12.10
2022-10-17T05:48:39.385Z,12.85
2022-10-17T05:51:10.995Z,12.02
2022-10-17T05:53:41.932Z,13.15
2022-10-17T05:56:16.800Z,11.85
2022-10-17T05:58:50.401Z,12.82
2022-10-17T06:01:39.584Z,13.52
2022-10-17T06:04:09.132Z,13.75
2022-10-17T06:06:39.002Z,12.82
2022-10-17T06:09:08.231Z,13.00
2022-10-17T06:11:40.405Z,13.65
2022-10-17T06:14:08.928Z,14.35
2022-10-17T06:16:38.846Z,12.45
2022-10-17T06:19:08.400Z,12.88
2022-10-17T06:21:38.677Z,12.23
2022-10-17T06:24:13.815Z,13.02
2022-10-17T06:26:43.535Z,12.73
2022-10-17T06:29:14.138Z,12.30
2022-10-17T06:31:48.782Z,11.65
2022-10-17T06:34:18.564Z,10.93
2022-10-17T06:36:47.317Z,12.02
2022-10-17T06:39:15.794Z,11.20
2022-10-17T06:41:55.089Z,12.02
2022-10-17T06:44:36.633Z,11.13
2022-10-17T06:47:23.162Z,10.93
2022-10-17T06:49:55.073Z,11.18
2022-10-17T06:52:31.943Z,11.95
2022-10-17T06:55:23.405Z,12.88
2022-10-17T06:58:09.226Z,12.00
2022-10-17T07:03:37.946Z,12.00
2022-10-17T07:06:08.145Z,13.60
2022-10-17T07:08:36.436Z,12.27
2022-10-17T07:11:10.947Z,14.97
2022-10-17T07:13:39.505Z,14.30
2022-10-17T07:16:09.270Z,14.57
2022-10-17T07:18:39.617Z,24.10
2022-10-17T07:21:10.938Z,17.13
2022-10-17T07:23:41.555Z,15.77
2022-10-17T07:26:12.963Z,16.13
2022-10-17T07:28:44.433Z,16.30
2022-10-17T07:31:42.016Z,13.37
2022-10-17T07:34:10.291Z,15.07
2022-10-17T07:36:39.947Z,15.47
2022-10-17T07:39:09.033Z,15.60
2022-10-17T07:41:38.824Z,15.93
2022-10-17T07:44:07.786Z,14.70
2022-10-17T07:46:41.843Z,15.67
2022-10-17T07:49:09.978Z,14.70
2022-10-17T07:51:39.663Z,14.80
2022-10-17T07:54:07.864Z,16.57
2022-10-17T07:56:36.001Z,15.87
2022-10-17T07:59:08.343Z,15.57
2022-10-17T08:01:38.066Z,16.37
2022-10-17T08:04:06.186Z,15.50
2022-10-17T08:06:34.394Z,15.23
2022-10-17T08:09:04.525Z,14.63
2022-10-17T08:11:32.674Z,14.30
2022-10-17T08:14:00.817Z,16.00
2022-10-17T08:16:28.982Z,16.20
2022-10-17T08:18:57.194Z,17.10
2022-10-17T08:21:25.409Z,15.47
2022-10-17T08:23:53.579Z,16.97
2022-10-17T08:26:23.186Z,15.00
2022-10-17T08:28:51.430Z,14.77
2022-10-17T08:31:21.061Z,14.80
2022-10-17T08:33:51.198Z,15.00
2022-10-17T08:36:20.995Z,15.57
2022-10-17T08:38:52.845Z,14.00
2022-10-17T08:41:42.237Z,14.07
2022-10-17T08:44:21.196Z,14.30
2022-10-17T08:46:53.803Z,13.80
2022-10-17T08:49:40.336Z,13.40
2022-10-17T08:52:17.834Z,13.70
2022-10-17T08:54:48.180Z,11.60
2022-10-17T08:57:19.123Z,11.93
2022-10-17T08:59:52.151Z,8.80
2022-10-17T09:02:40.117Z,10.43
2022-10-17T09:05:28.270Z,8.77
2022-10-17T09:08:08.353Z,7.50
2022-10-17T09:10:48.454Z,7.27
2022-10-17T09:13:28.048Z,6.63
2022-10-17T09:16:11.132Z,7.87
2022-10-17T09:18:42.175Z,8.60
2022-10-17T09:21:20.782Z,8.03
2022-10-17T09:23:59.520Z,8.33
2022-10-17T09:26:40.015Z,8.27
2022-10-17T09:29:21.395Z,7.73
2022-10-17T09:31:58.936Z,8.00
2022-10-17T09:34:30.212Z,8.40
2022-10-17T09:37:00.920Z,8.10
2022-10-17T09:39:31.987Z,6.47
2022-10-17T09:42:02.765Z,7.20
2022-10-17T09:44:34.427Z,8.23
2022-10-17T09:47:24.049Z,8.93
2022-10-17T09:49:52.605Z,8.03
2022-10-17T09:52:23.371Z,8.10
2022-10-17T09:54:54.214Z,8.50
2022-10-17T09:57:23.359Z,8.10
2022-10-17T10:00:00.653Z,6.20
2022-10-17T10:02:31.553Z,6.17
2022-10-17T10:05:04.727Z,6.50
2022-10-17T10:07:36.474Z,5.20
2022-10-17T10:10:07.596Z,5.37
2022-10-17T10:12:38.247Z,5.90
2022-10-17T10:15:33.555Z,4.50
2022-10-17T10:18:02.040Z,3.97
2022-10-17T10:20:34.328Z,5.20
2022-10-17T10:23:13.604Z,3.83
2022-10-17T10:25:54.042Z,3.97
2022-10-17T10:28:26.336Z,3.00
2022-10-17T10:30:57.494Z,3.03
2022-10-17T10:33:29.851Z,2.40
2022-10-17T10:36:01.838Z,2.73
2022-10-17T10:38:31.247Z,3.33
2022-10-17T10:41:05.162Z,3.40
2022-10-17T10:43:38.302Z,3.13
2022-10-17T10:46:19.656Z,3.00
2022-10-17T10:48:52.754Z,3.80
2022-10-17T10:51:25.735Z,3.67
2022-10-17T10:53:59.745Z,3.00
2022-10-17T10:56:34.406Z,3.77
2022-10-17T10:59:11.466Z,3.53
2022-10-17T11:01:46.894Z,3.60
2022-10-17T11:04:24.539Z,3.70
2022-10-17T11:06:57.083Z,3.00
2022-10-17T11:09:34.076Z,3.77
2022-10-17T11:12:10.948Z,3.77
2022-10-17T11:14:46.242Z,3.30
2022-10-17T11:17:28.772Z,2.97
2022-10-17T11:20:04.886Z,3.20
2022-10-17T11:22:37.438Z,4.33
2022-10-17T11:25:09.471Z,3.87
2022-10-17T11:27:37.648Z,3.70
2022-10-17T11:30:07.397Z,2.80
2022-10-17T11:32:41.234Z,3.33
2022-10-17T11:35:20.160Z,2.90
2022-10-17T11:37:54.190Z,3.60
2022-10-17T11:40:30.441Z,3.40
2022-10-17T11:43:02.104Z,3.80
2022-10-17T11:45:35.305Z,3.07
2022-10-17T11:48:11.926Z,3.60
2022-10-17T11:53:44.312Z,3.50
2022-10-17T11:56:13.844Z,3.50
2022-10-17T11:58:47.567Z,3.30
2022-10-17T12:01:25.002Z,3.60
2022-10-17T12:04:06.407Z,3.00
2022-10-17T12:06:46.775Z,3.50
2022-10-17T12:09:25.121Z,3.80
2022-10-17T12:11:56.890Z,3.00
2022-10-17T12:14:40.767Z,4.23
2022-10-17T12:17:27.438Z,3.30
2022-10-17T12:20:27.342Z,3.30
2022-10-17T12:22:57.513Z,3.67
2022-10-17T12:25:30.008Z,3.27
2022-10-17T12:28:14.274Z,3.50
2022-10-17T12:30:58.039Z,3.53
2022-10-17T12:33:33.026Z,4.20
2022-10-17T12:36:46.118Z,3.30
2022-10-17T12:39:51.426Z,3.60
2022-10-17T12:42:49.600Z,4.17
2022-10-17T12:45:49.813Z,6.33
2022-10-17T12:48:55.247Z,3.27
2022-10-17T12:51:40.492Z,2.77
2022-10-17T12:54:13.262Z,3.20
2022-10-17T12:56:43.681Z,2.67
2022-10-17T12:59:18.089Z,3.53
2022-10-17T13:01:49.483Z,3.93
2022-10-17T13:04:18.929Z,2.90
2022-10-17T13:06:49.316Z,3.10
2022-10-17T13:09:25.418Z,3.50
2022-10-17T13:11:54.995Z,3.00
2022-10-17T13:14:25.797Z,3.13
2022-10-17T13:16:56.110Z,3.20
2022-10-17T13:19:26.579Z,4.00
2022-10-17T13:21:59.849Z,4.00
2022-10-17T13:24:34.118Z,3.17
2022-10-17T13:27:03.295Z,3.70
2022-10-17T13:29:33.490Z,3.70
2022-10-17T13:32:04.056Z,3.10
2022-10-17T13:34:33.994Z,4.00
2022-10-17T13:37:04.455Z,3.20
2022-10-17T13:39:55.974Z,3.70
2022-10-17T13:42:29.961Z,3.73
2022-10-17T13:45:00.608Z,3.40
2022-10-17T13:47:31.501Z,3.53
2022-10-17T13:50:00.679Z,3.10
2022-10-17T13:52:31.504Z,3.27
2022-10-17T13:55:14.286Z,3.50
2022-10-17T13:57:44.929Z,3.50
2022-10-17T14:00:20.227Z,3.23
2022-10-17T14:02:49.438Z,3.80
2022-10-17T14:05:20.703Z,3.93
2022-10-17T14:10:43.591Z,3.90
2022-10-17T14:13:22.422Z,4.47
2022-10-17T14:15:53.713Z,4.43
2022-10-17T14:18:26.014Z,4.10
2022-10-17T14:21:32.177Z,4.50
2022-10-17T14:23:45.453Z,4.03
2022-10-17T14:26:16.662Z,4.50
2022-10-17T14:28:46.545Z,4.47
2022-10-17T14:31:34.918Z,4.17
2022-10-17T14:34:04.211Z,3.87
2022-10-17T14:36:36.007Z,4.20
2022-10-17T14:39:10.587Z,4.60
2022-10-17T14:41:46.597Z,4.63
2022-10-17T14:44:20.473Z,4.43
2022-10-17T14:46:54.064Z,4.77
2022-10-17T14:49:28.718Z,3.90
2022-10-17T14:52:29.320Z,4.60
2022-10-17T14:54:58.583Z,4.73
2022-10-17T14:57:30.619Z,4.50
2022-10-17T14:59:59.494Z,4.10
2022-10-17T15:02:31.098Z,4.90
2022-10-17T15:04:59.473Z,5.47
2022-10-17T15:07:27.561Z,5.03
2022-10-17T15:09:55.797Z,4.03
2022-10-17T15:12:26.196Z,4.40
2022-10-17T15:14:55.034Z,5.70
2022-10-17T15:17:27.118Z,5.50
2022-10-17T15:19:57.253Z,4.93
2022-10-17T15:22:25.750Z,4.97
2022-10-17T15:24:53.870Z,5.70
2022-10-17T15:27:24.046Z,4.73
2022-10-17T15:29:53.055Z,5.73
2022-10-17T15:32:21.279Z,5.50
2022-10-17T15:34:49.490Z,5.10
2022-10-17T15:37:22.805Z,6.80
2022-10-17T15:39:53.563Z,5.93
2022-10-17T15:42:23.360Z,5.70
2022-10-17T15:44:51.563Z,6.10
2022-10-17T15:47:26.210Z,6.97
2022-10-17T15:49:54.629Z,6.90
2022-10-17T15:52:25.262Z,6.53
2022-10-17T15:54:54.025Z,6.07
2022-10-17T15:57:25.611Z,6.57
2022-10-17T15:59:55.326Z,6.60
2022-10-17T16:02:24.894Z,6.30
2022-10-17T16:04:53.770Z,7.50
2022-10-17T16:07:22.039Z,7.43
2022-10-17T16:09:51.541Z,7.60
2022-10-17T16:14:57.302Z,7.23
2022-10-17T16:17:25.454Z,7.27
2022-10-17T16:19:53.608Z,7.07
2022-10-17T16:22:26.078Z,7.27
2022-10-17T16:24:59.126Z,6.33
2022-10-17T16:27:27.666Z,6.97
2022-10-17T16:29:55.821Z,8.27
2022-10-17T16:32:23.974Z,7.50
2022-10-17T16:34:52.187Z,6.73
2022-10-17T16:37:20.346Z,6.93
2022-10-17T16:39:52.501Z,7.60
2022-10-17T16:42:22.328Z,6.60
2022-10-17T16:44:51.177Z,7.47
2022-10-17T16:47:20.040Z,8.27
2022-10-17T16:49:48.387Z,8.40
2022-10-17T16:52:16.614Z,7.73
2022-10-17T16:54:44.836Z,7.17
2022-10-17T16:57:12.986Z,7.50
2022-10-17T16:59:43.087Z,10.40
2022-10-17T17:02:12.387Z,8.47
2022-10-17T17:04:40.618Z,8.57
2022-10-17T17:07:08.804Z,7.37
2022-10-17T17:09:36.989Z,8.33
2022-10-17T17:12:05.283Z,8.27
2022-10-17T17:14:33.438Z,8.87
2022-10-17T17:17:02.959Z,9.20
2022-10-17T17:19:31.324Z,9.00
2022-10-17T17:21:59.533Z,9.37
2022-10-17T17:24:28.283Z,9.30
2022-10-17T17:26:57.542Z,10.60
2022-10-17T17:29:26.208Z,9.80
2022-10-17T17:31:54.409Z,10.40
2022-10-17T17:34:24.022Z,11.37
2022-10-17T17:36:52.286Z,11.07
2022-10-17T17:39:20.543Z,10.70
2022-10-17T17:41:48.661Z,10.33
2022-10-17T17:44:17.367Z,11.03
2022-10-17T17:46:46.271Z,11.00
2022-10-17T17:49:14.858Z,11.67
2022-10-17T17:51:46.662Z,11.30
2022-10-17T17:54:15.188Z,11.53
2022-10-17T17:56:43.655Z,11.70
2022-10-17T17:59:14.430Z,11.70
2022-10-17T18:01:42.686Z,13.10
2022-10-17T18:04:12.319Z,13.30
2022-10-17T18:06:40.904Z,15.70
2022-10-17T18:09:10.861Z,17.93
2022-10-17T18:11:39.536Z,15.83
2022-10-17T18:14:12.356Z,15.73
2022-10-17T18:16:40.706Z,15.45
2022-10-17T18:19:11.294Z,15.20
2022-10-17T18:21:39.483Z,14.77
2022-10-17T18:24:07.936Z,14.48
2022-10-17T18:26:37.834Z,16.02
2022-10-17T18:29:06.073Z,16.20
2022-10-17T18:31:36.017Z,17.80
2022-10-17T18:34:05.663Z,15.00
2022-10-17T18:36:35.370Z,17.05
2022-10-17T18:39:04.369Z,17.30
2022-10-17T18:41:33.316Z,15.43
2022-10-17T18:44:04.044Z,14.60
2022-10-17T18:46:35.918Z,14.40
2022-10-17T18:49:04.515Z,15.75
2022-10-17T18:51:32.911Z,13.40
2022-10-17T18:54:02.381Z,15.50
2022-10-17T18:56:31.844Z,13.82
2022-10-17T18:58:59.994Z,14.30
2022-10-17T19:01:29.860Z,13.13
2022-10-17T19:04:00.044Z,12.60
2022-10-17T19:06:31.850Z,12.50
2022-10-17T19:09:01.118Z,13.45
2022-10-17T19:11:31.815Z,11.80
2022-10-17T19:14:01.593Z,12.00
2022-10-17T19:16:33.130Z,14.70
2022-10-17T19:19:04.729Z,14.05
2022-10-17T19:21:33.050Z,13.13
2022-10-17T19:24:04.481Z,13.70
2022-10-17T19:26:34.989Z,14.13
2022-10-17T19:29:04.297Z,14.82
2022-10-17T19:31:35.423Z,14.48
2022-10-17T19:34:03.944Z,13.10
2022-10-17T19:36:33.986Z,13.07
2022-10-17T19:39:03.557Z,15.20
2022-10-17T19:41:31.941Z,13.05
2022-10-17T19:44:01.331Z,12.48
2022-10-17T19:46:31.414Z,12.15
2022-10-17T19:49:01.593Z,13.27
2022-10-17T19:51:30.007Z,12.45
2022-10-17T19:54:01.184Z,13.90
2022-10-17T19:56:31.001Z,15.43
2022-10-17T19:58:59.776Z,17.10
2022-10-17T20:01:31.334Z,15.65
2022-10-17T20:04:01.131Z,13.95
2022-10-17T20:06:29.446Z,13.13
2022-10-17T20:08:57.873Z,14.05
2022-10-17T20:11:28.374Z,15.88
2022-10-17T20:13:57.156Z,15.52
2022-10-17T20:16:27.696Z,15.57
2022-10-17T20:18:58.741Z,16.70
2022-10-17T20:21:31.593Z,14.98
2022-10-17T20:24:00.986Z,13.82
2022-10-17T20:26:38.017Z,14.57
2022-10-17T20:29:11.183Z,15.48
2022-10-17T20:31:40.871Z,15.55
2022-10-17T20:34:09.305Z,13.05
2022-10-17T20:36:38.837Z,12.25
2022-10-17T20:39:08.005Z,14.50
2022-10-17T20:41:36.353Z,11.98
2022-10-17T20:44:06.863Z,12.32
2022-10-17T20:46:37.337Z,12.15
2022-10-17T20:49:06.928Z,11.30
2022-10-17T20:51:35.895Z,12.73
2022-10-17T20:54:06.455Z,11.30
2022-10-17T20:56:35.883Z,12.32
2022-10-17T20:59:07.039Z,12.00
2022-10-17T21:01:36.781Z,11.55
2022-10-17T21:04:33.440Z,10.35
2022-10-17T21:06:53.800Z,11.45
2022-10-17T21:09:23.551Z,11.65
2022-10-17T21:11:55.228Z,12.32
2022-10-17T21:14:24.384Z,11.70
2022-10-17T21:16:53.234Z,11.90
2022-10-17T21:19:22.419Z,10.80
2022-10-17T21:21:50.787Z,13.13
2022-10-17T21:24:20.827Z,13.45
2022-10-17T21:26:55.512Z,13.10
2022-10-17T21:29:24.732Z,12.60
2022-10-17T21:31:53.597Z,12.00
2022-10-17T21:34:24.541Z,11.27
2022-10-17T21:36:53.313Z,12.13
2022-10-17T21:39:24.139Z,12.07
2022-10-17T21:41:54.358Z,11.57
2022-10-17T21:44:24.939Z,11.35
2022-10-17T21:46:53.931Z,11.40
2022-10-17T21:49:24.186Z,10.70
2022-10-17T21:51:53.501Z,10.32
2022-10-17T21:54:23.064Z,10.50
2022-10-17T21:56:51.908Z,10.82
2022-10-17T21:59:21.471Z,11.15
2022-10-17T22:01:49.739Z,10.48
2022-10-17T22:04:20.045Z,12.50
2022-10-17T22:06:51.140Z,12.07
2022-10-17T22:09:21.487Z,12.52
2022-10-17T22:11:52.245Z,12.90
2022-10-17T22:14:23.569Z,11.93
2022-10-17T22:16:51.781Z,12.57
2022-10-17T22:19:21.995Z,13.60
2022-10-17T22:21:50.427Z,13.30
2022-10-17T22:26:53.241Z,13.57
2022-10-17T22:29:22.784Z,13.65
2022-10-17T22:31:51.127Z,14.93
2022-10-17T22:34:20.012Z,13.95
2022-10-17T22:36:48.951Z,14.30
2022-10-17T22:39:17.230Z,13.25
2022-10-17T22:41:45.484Z,11.82
2022-10-17T22:44:13.830Z,12.68
2022-10-17T22:46:43.366Z,14.50
2022-10-17T22:49:11.673Z,14.98
2022-10-17T22:51:39.812Z,16.13
2022-10-17T22:54:07.938Z,14.52
2022-10-17T22:56:36.050Z,14.40
2022-10-17T22:59:04.392Z,15.05
2022-10-17T23:01:32.636Z,15.43
2022-10-17T23:04:02.609Z,14.95
2022-10-17T23:06:30.721Z,14.57
2022-10-17T23:08:58.853Z,15.35
2022-10-17T23:11:26.983Z,14.95
2022-10-17T23:13:55.158Z,13.95
2022-10-17T23:16:23.362Z,14.40
2022-10-17T23:18:51.485Z,14.05
2022-10-17T23:21:21.003Z,14.00
2022-10-17T23:23:49.290Z,13.30
2022-10-17T23:26:17.449Z,12.15
2022-10-17T23:28:45.683Z,12.23
2022-10-17T23:31:16.784Z,13.82
2022-10-17T23:33:46.274Z,13.50
2022-10-17T23:36:15.626Z,12.10
2022-10-17T23:38:46.858Z,12.82
2022-10-17T23:41:15.478Z,12.90
2022-10-17T23:43:44.306Z,12.10
2022-10-17T23:46:12.762Z,12.00
2022-10-17T23:48:41.564Z,12.52
2022-10-17T23:51:11.406Z,12.30
2022-10-17T23:53:40.191Z,12.15
2022-10-17T23:56:11.414Z,12.43
2022-10-17T23:58:40.677Z,12.20
